createdAt,value
2022-10-15T00:01:11.070Z,100461.53
2022-10-15T00:03:40.805Z,100458.75
2022-10-15T00:06:10.633Z,100455.25
2022-10-15T00:08:38.843Z,100455.69
2022-10-15T00:11:08.682Z,100454.50
2022-10-15T00:13:36.484Z,100450.47
2022-10-15T00:16:04.316Z,100454.81
2022-10-15T00:18:31.559Z,100453.09
2022-10-15T00:20:58.930Z,100451.50
2022-10-15T00:23:26.146Z,100452.75
2022-10-15T00:26:20.554Z,100444.47
2022-10-15T00:28:50.109Z,100446.00
2022-10-15T00:31:23.207Z,100449.94
2022-10-15T00:33:51.292Z,100442.94
2022-10-15T00:36:33.025Z,100439.56
2022-10-15T00:39:01.447Z,100434.13
2022-10-15T00:41:31.732Z,100437.81
2022-10-15T00:44:23.061Z,100429.16
2022-10-15T00:47:03.445Z,100443.38
2022-10-15T00:49:36.050Z,100437.13
2022-10-15T00:52:09.614Z,100434.06
2022-10-15T00:54:50.384Z,100427.88
2022-10-15T00:57:17.787Z,100424.25
2022-10-15T00:59:49.641Z,100429.50
2022-10-15T01:02:21.068Z,100419.53
2022-10-15T01:04:49.542Z,100424.38
2022-10-15T01:09:49.215Z,100413.63
2022-10-15T01:12:39.823Z,100406.72
2022-10-15T01:15:10.106Z,100398.06
2022-10-15T01:17:50.680Z,100391.66
2022-10-15T01:20:20.985Z,100393.22
2022-10-15T01:23:22.407Z,100392.94
2022-10-15T01:26:17.344Z,100390.88
2022-10-15T01:28:58.447Z,100382.75
2022-10-15T01:31:50.348Z,100377.19
2022-10-15T01:34:48.382Z,100370.81
2022-10-15T01:37:50.390Z,100366.84
2022-10-15T01:40:21.424Z,100359.75
2022-10-15T01:43:00.497Z,100363.91
2022-10-15T01:45:40.961Z,100346.41
2022-10-15T01:48:33.377Z,100347.44
2022-10-15T01:51:02.416Z,100353.50
2022-10-15T01:53:30.276Z,100344.53
2022-10-15T01:56:00.397Z,100343.34
2022-10-15T01:58:27.740Z,100335.69
2022-10-15T02:00:57.312Z,100326.56
2022-10-15T02:03:24.698Z,100322.38
2022-10-15T02:06:07.527Z,100317.47
2022-10-15T02:08:42.030Z,100314.56
2022-10-15T02:11:12.600Z,100306.28
2022-10-15T02:13:56.990Z,100297.84
2022-10-15T02:16:24.945Z,100292.59
2022-10-15T02:18:56.606Z,100298.00
2022-10-15T02:21:39.118Z,100286.94
2022-10-15T02:24:18.522Z,100289.00
2022-10-15T02:26:47.083Z,100271.72
2022-10-15T02:29:20.378Z,100269.00
2022-10-15T02:31:49.211Z,100267.75
2022-10-15T02:34:21.606Z,100259.66
2022-10-15T02:36:49.679Z,100252.22
2022-10-15T02:39:21.443Z,100245.50
2022-10-15T02:41:49.532Z,100227.66
2022-10-15T02:44:17.312Z,100228.16
2022-10-15T02:46:44.621Z,100226.41
2022-10-15T02:49:13.923Z,100221.13
2022-10-15T02:51:41.383Z,100224.94
2022-10-15T02:54:08.567Z,100210.34
2022-10-15T02:56:39.331Z,100222.03
2022-10-15T02:59:06.724Z,100208.50
2022-10-15T03:01:34.456Z,100215.31
2022-10-15T03:04:02.864Z,100205.50
2022-10-15T03:06:31.444Z,100206.06
2022-10-15T03:08:59.434Z,100194.91
2022-10-15T03:11:26.749Z,100191.84
2022-10-15T03:13:54.116Z,100191.19
2022-10-15T03:16:21.794Z,100179.00
2022-10-15T03:18:49.130Z,100184.09
2022-10-15T03:21:18.260Z,100182.50
2022-10-15T03:23:45.637Z,100171.22
2022-10-15T03:26:19.927Z,100173.72
2022-10-15T03:28:47.348Z,100162.78
2022-10-15T03:31:23.049Z,100158.50
2022-10-15T03:33:51.206Z,100156.03
2022-10-15T03:36:23.044Z,100146.22
2022-10-15T03:38:50.386Z,100153.03
2022-10-15T03:41:17.712Z,100143.13
2022-10-15T03:43:45.945Z,100144.09
2022-10-15T03:46:13.489Z,100140.91
2022-10-15T03:48:43.541Z,100136.09
2022-10-15T03:51:15.648Z,100139.31
2022-10-15T03:53:47.147Z,100133.66
2022-10-15T03:56:15.161Z,100137.28
2022-10-15T03:58:42.642Z,100129.31
2022-10-15T04:01:17.716Z,100127.00
2022-10-15T04:03:45.481Z,100127.38
2022-10-15T04:06:16.093Z,100109.28
2022-10-15T04:08:43.415Z,100112.34
2022-10-15T04:11:21.125Z,100113.94
2022-10-15T04:13:57.170Z,100117.47
2022-10-15T04:16:24.416Z,100110.72
2022-10-15T04:18:51.723Z,100107.72
2022-10-15T04:21:18.961Z,100101.13
2022-10-15T04:23:50.618Z,100094.75
2022-10-15T04:26:24.355Z,100098.66
2022-10-15T04:28:51.681Z,100106.38
2022-10-15T04:31:21.102Z,100094.78
2022-10-15T04:33:49.694Z,100104.69
2022-10-15T04:38:53.526Z,100100.41
2022-10-15T04:41:35.275Z,100097.16
2022-10-15T04:44:05.924Z,100093.16
2022-10-15T04:46:33.644Z,100100.75
2022-10-15T04:49:09.222Z,100099.53
2022-10-15T04:51:37.722Z,100093.28
2022-10-15T04:54:12.742Z,100096.44
2022-10-15T04:56:55.177Z,100100.03
2022-10-15T04:59:22.751Z,100099.97
2022-10-15T05:02:19.382Z,100108.34
2022-10-15T05:04:51.554Z,100114.28
2022-10-15T05:07:18.800Z,100120.81
2022-10-15T05:09:47.734Z,100117.66
2022-10-15T05:12:15.067Z,100114.06
2022-10-15T05:14:42.331Z,100112.78
2022-10-15T05:17:16.322Z,100118.78
2022-10-15T05:19:44.884Z,100120.81
2022-10-15T05:22:18.909Z,100121.88
2022-10-15T05:24:53.302Z,100124.03
2022-10-15T05:27:35.452Z,100121.38
2022-10-15T05:30:05.367Z,100122.59
2022-10-15T05:32:41.919Z,100116.91
2022-10-15T05:35:12.245Z,100118.19
2022-10-15T05:37:52.785Z,100125.53
2022-10-15T05:40:22.005Z,100127.13
2022-10-15T05:43:02.311Z,100119.06
2022-10-15T05:45:29.664Z,100116.34
2022-10-15T05:48:02.325Z,100113.63
2022-10-15T05:50:29.967Z,100110.41
2022-10-15T05:52:58.609Z,100121.41
2022-10-15T05:55:34.517Z,100110.25
2022-10-15T05:58:03.297Z,100117.94
2022-10-15T06:00:31.521Z,100112.31
2022-10-15T06:02:58.934Z,100105.06
2022-10-15T06:05:26.398Z,100117.94
2022-10-15T06:07:53.617Z,100113.63
2022-10-15T06:10:20.862Z,100111.41
2022-10-15T06:12:51.529Z,100114.44
2022-10-15T06:15:19.389Z,100114.63
2022-10-15T06:17:46.635Z,100119.44
2022-10-15T06:20:13.894Z,100117.84
2022-10-15T06:22:41.154Z,100119.00
2022-10-15T06:25:08.977Z,100114.25
2022-10-15T06:27:36.260Z,100113.53
2022-10-15T06:30:04.381Z,100118.66
2022-10-15T06:32:31.668Z,100113.88
2022-10-15T06:34:58.939Z,100123.81
2022-10-15T06:37:26.835Z,100125.81
2022-10-15T06:39:56.526Z,100122.28
2022-10-15T06:42:23.897Z,100126.63
2022-10-15T06:44:55.617Z,100125.81
2022-10-15T06:47:23.049Z,100123.50
2022-10-15T06:49:50.633Z,100132.94
2022-10-15T06:52:17.943Z,100132.50
2022-10-15T06:54:45.140Z,100133.34
2022-10-15T06:57:14.325Z,100136.50
2022-10-15T07:00:26.393Z,100138.22
2022-10-15T07:02:55.841Z,100141.97
2022-10-15T07:05:23.009Z,100135.19
2022-10-15T07:07:57.443Z,100136.03
2022-10-15T07:10:26.198Z,100138.91
2022-10-15T07:12:54.924Z,100148.19
2022-10-15T07:15:22.542Z,100139.00
2022-10-15T07:17:51.706Z,100146.88
2022-10-15T07:20:21.902Z,100150.72
2022-10-15T07:22:50.769Z,100155.53
2022-10-15T07:25:18.736Z,100161.94
2022-10-15T07:27:47.338Z,100150.78
2022-10-15T07:30:14.571Z,100153.59
2022-10-15T07:32:44.464Z,100157.28
2022-10-15T07:35:14.497Z,100161.69
2022-10-15T07:37:41.666Z,100175.19
2022-10-15T07:40:09.304Z,100174.41
2022-10-15T07:42:37.623Z,100177.25
2022-10-15T07:45:05.355Z,100182.00
2022-10-15T07:47:32.564Z,100187.22
2022-10-15T07:49:59.760Z,100188.53
2022-10-15T07:52:27.401Z,100194.94
2022-10-15T07:54:54.864Z,100192.72
2022-10-15T07:57:22.047Z,100200.38
2022-10-15T07:59:50.413Z,100201.22
2022-10-15T08:02:18.227Z,100203.91
2022-10-15T08:04:45.511Z,100209.72
2022-10-15T08:07:12.762Z,100217.34
2022-10-15T08:09:40.035Z,100208.47
2022-10-15T08:12:07.580Z,100209.44
2022-10-15T08:14:36.038Z,100210.25
2022-10-15T08:17:04.242Z,100207.69
2022-10-15T08:19:31.799Z,100204.66
2022-10-15T08:21:59.264Z,100203.66
2022-10-15T08:24:26.622Z,100216.34
2022-10-15T08:26:54.505Z,100200.22
2022-10-15T08:29:21.830Z,100210.75
2022-10-15T08:31:49.499Z,100208.19
2022-10-15T08:34:18.975Z,100202.91
2022-10-15T08:36:46.269Z,100213.84
2022-10-15T08:39:13.734Z,100220.63
2022-10-15T08:41:45.758Z,100221.53
2022-10-15T08:44:27.216Z,100225.84
2022-10-15T08:47:08.670Z,100229.22
2022-10-15T08:49:45.667Z,100238.50
2022-10-15T08:52:21.203Z,100243.38
2022-10-15T08:54:48.575Z,100229.69
2022-10-15T08:58:01.157Z,100236.06
2022-10-15T09:00:32.115Z,100234.19
2022-10-15T09:03:10.817Z,100239.06
2022-10-15T09:05:47.020Z,100233.69
2022-10-15T09:08:26.438Z,100240.91
2022-10-15T09:11:01.013Z,100249.66
2022-10-15T09:13:31.570Z,100257.66
2022-10-15T09:16:02.523Z,100255.72
2022-10-15T09:18:32.659Z,100251.38
2022-10-15T09:21:00.498Z,100253.44
2022-10-15T09:23:30.508Z,100254.25
2022-10-15T09:26:03.598Z,100264.81
2022-10-15T09:28:38.792Z,100267.97
2022-10-15T09:31:09.035Z,100266.72
2022-10-15T09:33:46.808Z,100271.03
2022-10-15T09:36:29.702Z,100273.13
2022-10-15T09:39:03.491Z,100274.84
2022-10-15T09:42:07.079Z,100269.38
2022-10-15T09:44:38.829Z,100284.28
2022-10-15T09:47:30.119Z,100285.25
2022-10-15T09:50:05.035Z,100284.66
2022-10-15T09:52:51.170Z,100283.09
2022-10-15T09:55:33.628Z,100286.97
2022-10-15T09:58:09.587Z,100291.88
2022-10-15T10:00:56.671Z,100308.09
2022-10-15T10:03:26.923Z,100316.38
2022-10-15T10:06:03.218Z,100321.19
2022-10-15T10:08:55.105Z,100337.50
2022-10-15T10:11:24.155Z,100329.19
2022-10-15T10:13:59.088Z,100323.59
2022-10-15T10:16:27.802Z,100319.84
2022-10-15T10:19:12.995Z,100325.38
2022-10-15T10:21:42.822Z,100327.09
2022-10-15T10:24:31.627Z,100330.75
2022-10-15T10:26:59.502Z,100330.06
2022-10-15T10:29:35.281Z,100329.34
2022-10-15T10:32:21.871Z,100335.03
2022-10-15T10:34:52.612Z,100332.34
2022-10-15T10:37:20.654Z,100342.22
2022-10-15T10:39:59.544Z,100339.81
2022-10-15T10:42:34.449Z,100347.81
2022-10-15T10:45:23.771Z,100346.25
2022-10-15T10:47:51.186Z,100341.25
2022-10-15T10:50:35.464Z,100339.81
2022-10-15T10:53:32.315Z,100342.19
2022-10-15T10:56:02.108Z,100338.00
2022-10-15T10:58:31.810Z,100344.56
2022-10-15T11:00:59.323Z,100360.31
2022-10-15T11:03:37.681Z,100370.94
2022-10-15T11:06:35.221Z,100366.88
2022-10-15T11:09:12.498Z,100371.13
2022-10-15T11:11:52.236Z,100368.84
2022-10-15T11:14:45.760Z,100377.25
2022-10-15T11:17:34.942Z,100368.91
2022-10-15T11:20:59.816Z,100383.41
2022-10-15T11:23:38.976Z,100386.38
2022-10-15T11:26:34.124Z,100398.31
2022-10-15T11:29:23.452Z,100383.19
2022-10-15T11:32:02.117Z,100378.94
2022-10-15T11:34:30.252Z,100383.91
2022-10-15T11:37:23.474Z,100386.72
2022-10-15T11:40:13.687Z,100369.38
2022-10-15T11:42:40.775Z,100379.16
2022-10-15T11:45:38.933Z,100375.94
2022-10-15T11:48:24.407Z,100371.38
2022-10-15T11:51:07.461Z,100368.75
2022-10-15T11:53:48.154Z,100379.22
2022-10-15T11:56:26.545Z,100373.75
2022-10-15T11:59:01.024Z,100380.34
2022-10-15T12:01:46.603Z,100381.31
2022-10-15T12:04:18.353Z,100387.03
2022-10-15T12:06:50.556Z,100390.03
2022-10-15T12:09:26.814Z,100390.41
2022-10-15T12:12:29.293Z,100389.19
2022-10-15T12:15:15.431Z,100382.19
2022-10-15T12:18:37.164Z,100384.72
2022-10-15T12:21:04.298Z,100387.44
2022-10-15T12:23:37.312Z,100391.84
2022-10-15T12:26:33.104Z,100382.69
2022-10-15T12:29:05.819Z,100381.84
2022-10-15T12:32:02.549Z,100388.72
2022-10-15T12:34:36.573Z,100393.44
2022-10-15T12:37:27.957Z,100387.81
2022-10-15T12:39:58.365Z,100381.91
2022-10-15T12:42:32.146Z,100374.94
2022-10-15T12:45:02.763Z,100378.03
2022-10-15T12:47:56.176Z,100383.13
2022-10-15T12:50:29.940Z,100375.25
2022-10-15T12:53:02.992Z,100385.53
2022-10-15T12:55:34.654Z,100372.13
2022-10-15T12:58:26.614Z,100360.44
2022-10-15T13:00:53.861Z,100364.69
2022-10-15T13:03:36.926Z,100357.72
2022-10-15T13:06:15.136Z,100363.53
2022-10-15T13:08:48.519Z,100355.53
2022-10-15T13:11:21.964Z,100343.78
2022-10-15T13:13:51.066Z,100346.41
2022-10-15T13:16:19.076Z,100357.31
2022-10-15T13:18:52.712Z,100351.72
2022-10-15T13:21:20.048Z,100347.50
2022-10-15T13:23:49.195Z,100346.22
2022-10-15T13:26:25.546Z,100339.78
2022-10-15T13:28:55.274Z,100337.19
2022-10-15T13:31:28.983Z,100339.09
2022-10-15T13:34:14.498Z,100345.22
2022-10-15T13:36:41.881Z,100348.03
2022-10-15T13:39:23.412Z,100350.00
2022-10-15T13:41:50.786Z,100345.28
2022-10-15T13:44:22.817Z,100343.78
2022-10-15T13:46:50.741Z,100340.63
2022-10-15T13:49:18.564Z,100344.72
2022-10-15T13:51:53.170Z,100354.22
2022-10-15T13:54:23.764Z,100345.50
2022-10-15T13:56:59.086Z,100352.09
2022-10-15T13:59:28.477Z,100357.84
2022-10-15T14:02:01.306Z,100344.63
2022-10-15T14:04:31.807Z,100349.50
2022-10-15T14:07:04.003Z,100355.94
2022-10-15T14:09:36.267Z,100353.09
2022-10-15T14:12:07.637Z,100357.94
2022-10-15T14:14:36.685Z,100366.06
2022-10-15T14:17:06.613Z,100364.69
2022-10-15T14:19:36.050Z,100361.19
2022-10-15T14:22:03.515Z,100367.25
2022-10-15T14:24:37.008Z,100376.63
2022-10-15T14:27:27.807Z,100376.97
2022-10-15T14:29:56.758Z,100376.13
2022-10-15T14:32:32.145Z,100387.03
2022-10-15T14:35:01.073Z,100381.31
2022-10-15T14:37:28.242Z,100375.00
2022-10-15T14:40:17.868Z,100375.78
2022-10-15T14:42:49.249Z,100379.91
2022-10-15T14:45:29.692Z,100385.22
2022-10-15T14:47:59.434Z,100381.78
2022-10-15T14:50:33.110Z,100378.81
2022-10-15T14:53:06.579Z,100380.94
2022-10-15T14:55:38.794Z,100382.13
2022-10-15T14:58:11.275Z,100384.88
2022-10-15T15:00:43.528Z,100380.63
2022-10-15T15:03:15.768Z,100383.69
2022-10-15T15:05:48.078Z,100390.56
2022-10-15T15:08:15.442Z,100387.75
2022-10-15T15:10:44.074Z,100402.41
2022-10-15T15:13:22.759Z,100404.53
2022-10-15T15:15:50.149Z,100401.91
2022-10-15T15:18:17.498Z,100408.56
2022-10-15T15:20:46.154Z,100399.06
2022-10-15T15:23:19.515Z,100401.00
2022-10-15T15:25:47.343Z,100407.53
2022-10-15T15:28:20.572Z,100413.13
2022-10-15T15:31:03.238Z,100419.34
2022-10-15T15:33:30.483Z,100413.75
2022-10-15T15:36:03.812Z,100409.69
2022-10-15T15:38:31.542Z,100411.75
2022-10-15T15:41:15.979Z,100410.81
2022-10-15T15:43:46.077Z,100411.84
2022-10-15T15:46:16.851Z,100404.56
2022-10-15T15:48:44.631Z,100403.09
2022-10-15T15:51:29.234Z,100408.72
2022-10-15T15:53:56.815Z,100409.75
2022-10-15T15:56:24.543Z,100406.97
2022-10-15T15:58:51.990Z,100413.38
2022-10-15T16:01:20.229Z,100412.59
2022-10-15T16:03:47.633Z,100414.56
2022-10-15T16:06:14.927Z,100411.81
2022-10-15T16:08:42.347Z,100413.03
2022-10-15T16:11:09.787Z,100405.84
2022-10-15T16:13:37.747Z,100403.28
2022-10-15T16:16:06.642Z,100411.94
2022-10-15T16:18:33.985Z,100413.59
2022-10-15T16:21:01.277Z,100403.31
2022-10-15T16:23:28.558Z,100404.91
2022-10-15T16:25:57.510Z,100404.53
2022-10-15T16:28:24.788Z,100403.72
2022-10-15T16:30:52.112Z,100413.38
2022-10-15T16:33:19.395Z,100420.47
2022-10-15T16:35:52.691Z,100402.94
2022-10-15T16:38:20.025Z,100399.34
2022-10-15T16:40:49.993Z,100404.81
2022-10-15T16:43:17.237Z,100409.94
2022-10-15T16:45:44.527Z,100416.81
2022-10-15T16:48:11.930Z,100417.34
2022-10-15T16:50:40.972Z,100420.59
2022-10-15T16:53:08.301Z,100419.19
2022-10-15T16:55:36.034Z,100423.00
2022-10-15T16:58:03.600Z,100414.75
2022-10-15T17:00:30.938Z,100419.56
2022-10-15T17:03:02.718Z,100424.63
2022-10-15T17:05:31.661Z,100431.13
2022-10-15T17:07:58.927Z,100433.00
2022-10-15T17:10:26.356Z,100439.16
2022-10-15T17:12:53.818Z,100447.59
2022-10-15T17:15:21.017Z,100448.66
2022-10-15T17:17:48.480Z,100454.25
2022-10-15T17:20:15.809Z,100457.06
2022-10-15T17:22:43.120Z,100450.53
2022-10-15T17:25:10.338Z,100464.97
2022-10-15T17:27:37.632Z,100463.81
2022-10-15T17:30:05.456Z,100464.91
2022-10-15T17:32:32.793Z,100457.22
2022-10-15T17:35:03.734Z,100454.88
2022-10-15T17:37:31.824Z,100475.72
2022-10-15T17:39:59.289Z,100482.03
2022-10-15T17:42:26.983Z,100486.25
2022-10-15T17:44:54.478Z,100481.41
2022-10-15T17:47:21.706Z,100485.00
2022-10-15T17:49:49.040Z,100480.50
2022-10-15T17:52:16.370Z,100473.66
2022-10-15T17:54:44.613Z,100484.41
2022-10-15T17:57:12.070Z,100479.25
2022-10-15T17:59:39.644Z,100485.03
2022-10-15T18:02:07.020Z,100495.78
2022-10-15T18:04:39.807Z,100490.31
2022-10-15T18:07:07.692Z,100489.47
2022-10-15T18:09:35.683Z,100494.34
2022-10-15T18:12:03.143Z,100500.97
2022-10-15T18:14:33.865Z,100498.19
2022-10-15T18:17:01.116Z,100517.91
2022-10-15T18:19:28.677Z,100501.41
2022-10-15T18:21:57.040Z,100508.06
2022-10-15T18:24:24.703Z,100511.69
2022-10-15T18:26:53.052Z,100513.97
2022-10-15T18:29:20.344Z,100507.88
2022-10-15T18:31:47.748Z,100518.94
2022-10-15T18:34:15.207Z,100519.88
2022-10-15T18:36:45.563Z,100526.72
2022-10-15T18:39:12.799Z,100519.16
2022-10-15T18:41:41.108Z,100511.13
2022-10-15T18:44:13.570Z,100505.41
2022-10-15T18:46:42.229Z,100501.06
2022-10-15T18:49:09.490Z,100507.31
2022-10-15T18:51:36.870Z,100516.13
2022-10-15T18:54:04.761Z,100517.84
2022-10-15T18:56:32.080Z,100504.66
2022-10-15T18:58:59.377Z,100510.81
2022-10-15T19:01:30.081Z,100512.88
2022-10-15T19:03:59.325Z,100527.09
2022-10-15T19:06:32.718Z,100534.53
2022-10-15T19:09:00.898Z,100525.97
2022-10-15T19:11:31.421Z,100529.41
2022-10-15T19:14:00.400Z,100510.38
2022-10-15T19:16:28.217Z,100509.97
2022-10-15T19:19:02.230Z,100508.69
2022-10-15T19:21:30.814Z,100515.94
2022-10-15T19:24:10.195Z,100513.47
2022-10-15T19:26:37.540Z,100511.31
2022-10-15T19:29:05.017Z,100515.00
2022-10-15T19:31:39.013Z,100514.72
2022-10-15T19:34:06.754Z,100515.88
2022-10-15T19:36:37.198Z,100516.44
2022-10-15T19:39:11.323Z,100528.03
2022-10-15T19:41:40.449Z,100535.66
2022-10-15T19:44:08.466Z,100532.94
2022-10-15T19:46:36.931Z,100540.09
2022-10-15T19:49:05.376Z,100541.81
2022-10-15T19:51:33.183Z,100541.75
2022-10-15T19:54:00.554Z,100542.38
2022-10-15T19:56:31.674Z,100544.91
2022-10-15T19:59:04.347Z,100540.91
2022-10-15T20:01:32.785Z,100538.50
2022-10-15T20:04:04.895Z,100543.78
2022-10-15T20:06:35.571Z,100547.25
2022-10-15T20:09:03.090Z,100525.94
2022-10-15T20:11:30.495Z,100525.88
2022-10-15T20:14:01.166Z,100521.78
2022-10-15T20:16:33.861Z,100522.16
2022-10-15T20:19:02.888Z,100538.13
2022-10-15T20:21:30.674Z,100559.06
2022-10-15T20:23:58.900Z,100562.69
2022-10-15T20:26:26.268Z,100557.59
2022-10-15T20:28:53.652Z,100579.28
2022-10-15T20:31:21.641Z,100572.50
2022-10-15T20:33:49.434Z,100573.41
2022-10-15T20:36:22.531Z,100570.84
2022-10-15T20:38:51.886Z,100583.03
2022-10-15T20:41:20.255Z,100564.75
2022-10-15T20:43:53.844Z,100568.00
2022-10-15T20:46:28.422Z,100562.78
2022-10-15T20:49:07.566Z,100574.75
2022-10-15T20:51:37.656Z,100566.03
2022-10-15T20:54:07.721Z,100543.06
2022-10-15T20:56:35.358Z,100567.50
2022-10-15T20:59:03.967Z,100558.16
2022-10-15T21:01:32.199Z,100569.19
2022-10-15T21:04:00.677Z,100589.94
2022-10-15T21:06:27.894Z,100598.75
2022-10-15T21:08:55.186Z,100586.19
2022-10-15T21:11:23.255Z,100565.28
2022-10-15T21:13:50.648Z,100564.69
2022-10-15T21:16:18.061Z,100583.72
2022-10-15T21:18:45.452Z,100591.44
2022-10-15T21:21:14.127Z,100597.97
2022-10-15T21:23:42.389Z,100586.75
2022-10-15T21:26:17.221Z,100597.06
2022-10-15T21:28:45.461Z,100598.50
2022-10-15T21:31:16.122Z,100596.69
2022-10-15T21:33:44.893Z,100597.34
2022-10-15T21:36:26.338Z,100590.00
2022-10-15T21:39:02.100Z,100593.84
2022-10-15T21:41:31.391Z,100593.53
2022-10-15T21:43:59.654Z,100587.66
2022-10-15T21:46:27.811Z,100593.84
2022-10-15T21:48:55.012Z,100612.75
2022-10-15T21:51:27.158Z,100617.91
2022-10-15T21:53:55.753Z,100616.38
2022-10-15T21:56:23.550Z,100613.75
2022-10-15T21:58:54.426Z,100600.50
2022-10-15T22:01:25.914Z,100616.81
2022-10-15T22:03:57.587Z,100618.66
2022-10-15T22:06:24.855Z,100632.28
2022-10-15T22:08:52.135Z,100636.28
2022-10-15T22:11:22.660Z,100636.50
2022-10-15T22:13:52.481Z,100635.31
2022-10-15T22:16:20.817Z,100619.03
2022-10-15T22:18:48.043Z,100612.03
2022-10-15T22:21:18.497Z,100614.75
2022-10-15T22:23:51.707Z,100624.81
2022-10-15T22:26:20.986Z,100633.00
2022-10-15T22:28:48.308Z,100608.22
2022-10-15T22:31:16.947Z,100617.75
2022-10-15T22:33:45.575Z,100621.19
2022-10-15T22:36:18.715Z,100605.28
2022-10-15T22:38:49.315Z,100620.97
2022-10-15T22:41:16.591Z,100614.38
2022-10-15T22:43:43.867Z,100613.19
2022-10-15T22:46:11.561Z,100615.31
2022-10-15T22:48:40.675Z,100613.06
2022-10-15T22:51:10.874Z,100613.28
2022-10-15T22:53:38.294Z,100623.69
2022-10-15T22:56:08.042Z,100609.03
2022-10-15T22:58:36.239Z,100612.59
2022-10-15T23:01:30.913Z,100614.75
2022-10-15T23:04:01.628Z,100625.91
2022-10-15T23:06:30.623Z,100623.75
2022-10-15T23:08:58.611Z,100622.59
2022-10-15T23:11:29.365Z,100618.25
2022-10-15T23:13:59.212Z,100621.78
2022-10-15T23:16:32.267Z,100616.13
2022-10-15T23:19:02.170Z,100621.72
2022-10-15T23:21:34.889Z,100621.94
2022-10-15T23:24:02.793Z,100617.09
2022-10-15T23:26:30.802Z,100618.47
2022-10-15T23:28:59.798Z,100620.47
2022-10-15T23:31:32.897Z,100604.63
2022-10-15T23:34:01.117Z,100612.13
2022-10-15T23:36:29.469Z,100613.78
2022-10-15T23:38:58.742Z,100621.41
2022-10-15T23:41:27.100Z,100604.00
2022-10-15T23:43:54.583Z,100611.91
2022-10-15T23:46:22.479Z,100618.03
2022-10-15T23:48:50.236Z,100616.16
2022-10-15T23:51:23.444Z,100615.41
2022-10-15T23:53:51.644Z,100620.97
2022-10-15T23:56:19.299Z,100601.41
2022-10-15T23:58:55.019Z,100595.03
